Weather at Kingsland Estates Airport

Public forecast

Using degrees Fahrenheit for public forecast. Weather courtesy of forecast.io.

Closest aviation weather report (METAR) to Kingsland Estates Airport

Closest report is Horseshoe Bay Resort Airpark, 9.8 nm (18.2 km) SE. Retrieved 2022/01/17 04:15 UTC (10 minutes ago):

KDZB 170415Z AUTO 00000KT 10SM CLR 05/M05 A3006 RMK AO2 T00451047

Closest aviation forecast (TAF) to Kingsland Estates Airport

Closest forecast is Killeen-Fort Hood Regional Airport / Robert Gray Army Air Field, 41.7 nm (77.2 km) NE. Retrieved 2022-01-17 00:13 UTC (4 hours ago):

TAF KGRK 170000Z 1700/1806 VRB06KT 9999 SKC 510012 QNH3000INS TX15/1722Z TN00/1713Z